createdAt,value
2022-08-09T00:00:08.056Z,16.0
2022-08-09T00:06:17.780Z,16.0
2022-08-09T00:10:08.598Z,16.0
2022-08-09T00:15:08.076Z,16.0
2022-08-09T00:20:08.413Z,15.6
2022-08-09T00:25:09.986Z,15.6
2022-08-09T00:30:24.784Z,15.6
2022-08-09T00:35:08.018Z,15.6
2022-08-09T00:40:12.258Z,15.6
2022-08-09T00:45:15.958Z,15.6
2022-08-09T00:50:08.169Z,15.5
2022-08-09T00:55:08.600Z,15.5
2022-08-09T01:00:22.110Z,15.3
2022-08-09T01:05:14.048Z,15.3
2022-08-09T01:10:08.317Z,15.1
2022-08-09T01:15:16.819Z,15.1
2022-08-09T01:20:08.459Z,15.1
2022-08-09T01:25:08.034Z,15.1
2022-08-09T01:30:08.401Z,15.1
2022-08-09T01:35:29.052Z,15.1
2022-08-09T01:40:07.869Z,15.0
2022-08-09T01:45:08.564Z,15.0
2022-08-09T01:50:08.239Z,15.0
2022-08-09T01:55:08.250Z,15.0
2022-08-09T02:00:34.315Z,14.8
2022-08-09T02:05:15.819Z,14.8
2022-08-09T02:10:07.813Z,14.6
2022-08-09T02:15:08.512Z,14.6
2022-08-09T02:20:08.267Z,14.5
2022-08-09T02:25:08.644Z,14.5
2022-08-09T02:30:08.320Z,14.5
2022-08-09T02:35:17.306Z,14.5
2022-08-09T02:40:10.291Z,14.5
2022-08-09T02:45:08.377Z,14.5
2022-08-09T02:50:08.102Z,14.3
2022-08-09T02:55:20.778Z,14.3
2022-08-09T03:00:20.911Z,14.3
2022-08-09T03:05:07.837Z,14.3
2022-08-09T03:10:08.437Z,14.3
2022-08-09T03:15:08.154Z,14.3
2022-08-09T03:20:11.223Z,14.0
2022-08-09T03:25:21.876Z,14.0
2022-08-09T03:30:08.543Z,14.0
2022-08-09T03:35:15.031Z,14.0
2022-08-09T03:40:07.731Z,14.0
2022-08-09T03:45:07.803Z,13.8
2022-08-09T03:50:08.480Z,13.8
2022-08-09T03:55:09.871Z,13.8
2022-08-09T04:00:07.691Z,13.6
2022-08-09T04:05:06.414Z,13.6
2022-08-09T04:10:01.942Z,13.6
2022-08-09T04:15:17.018Z,13.6
2022-08-09T04:20:02.898Z,13.6
2022-08-09T04:25:03.086Z,13.6
2022-08-09T04:30:02.582Z,13.6
2022-08-09T04:35:01.799Z,13.6
2022-08-09T04:40:02.544Z,13.6
2022-08-09T04:45:01.875Z,13.6
2022-08-09T04:50:02.732Z,14.0
2022-08-09T04:55:02.595Z,14.0
2022-08-09T05:00:02.263Z,14.1
2022-08-09T05:05:09.639Z,14.1
2022-08-09T05:10:02.400Z,14.1
2022-08-09T05:15:03.272Z,14.3
2022-08-09T05:20:02.623Z,14.3
2022-08-09T05:25:02.808Z,14.3
2022-08-09T05:30:02.671Z,14.6
2022-08-09T05:35:02.551Z,14.6
2022-08-09T05:40:02.607Z,14.6
2022-08-09T05:45:02.708Z,15.0
2022-08-09T05:50:30.398Z,15.3
2022-08-09T05:55:03.034Z,15.3
2022-08-09T06:00:02.260Z,15.3
2022-08-09T06:05:02.233Z,15.6
2022-08-09T06:10:03.124Z,15.6
2022-08-09T06:15:04.049Z,15.8
2022-08-09T06:20:01.893Z,15.8
2022-08-09T06:25:02.234Z,16.2
2022-08-09T06:30:08.877Z,16.6
2022-08-09T06:35:01.867Z,16.6
2022-08-09T06:40:06.828Z,16.7
2022-08-09T06:46:03.504Z,16.7
2022-08-09T06:50:14.154Z,17.2
2022-08-09T06:55:01.905Z,17.2
2022-08-09T07:00:54.788Z,17.7
2022-08-09T07:05:01.889Z,17.7
2022-08-09T07:10:14.187Z,17.8
2022-08-09T07:15:53.238Z,17.8
2022-08-09T07:20:01.866Z,18.5
2022-08-09T07:25:02.423Z,18.5
2022-08-09T07:30:02.456Z,18.8
2022-08-09T07:35:02.808Z,18.8
2022-08-09T07:40:02.142Z,19.2
2022-08-09T07:45:01.842Z,19.2
2022-08-09T07:50:08.074Z,19.7
2022-08-09T07:55:04.014Z,19.7
2022-08-09T08:00:03.217Z,20.2
2022-08-09T08:05:01.889Z,20.2
2022-08-09T08:10:07.605Z,22.2
2022-08-09T08:15:01.834Z,22.2
2022-08-09T08:20:02.654Z,22.7
2022-08-09T08:25:02.597Z,22.7
2022-08-09T08:30:04.269Z,23.0
2022-08-09T08:35:02.386Z,23.0
2022-08-09T08:40:02.305Z,23.8
2022-08-09T08:45:11.916Z,23.8
2022-08-09T08:50:02.973Z,23.8
2022-08-09T08:55:04.028Z,23.8
2022-08-09T09:00:02.036Z,25.1
2022-08-09T09:05:05.919Z,25.1
2022-08-09T09:10:04.995Z,26.1
2022-08-09T09:15:02.778Z,26.1
2022-08-09T09:20:02.406Z,26.1
2022-08-09T09:26:01.238Z,26.1
2022-08-09T09:30:15.812Z,26.0
2022-08-09T09:35:09.557Z,26.0
2022-08-09T09:40:02.633Z,26.8
2022-08-09T09:45:03.237Z,26.8
2022-08-09T09:50:14.145Z,27.7
2022-08-09T09:55:02.700Z,27.7
2022-08-09T10:00:02.729Z,28.0
2022-08-09T10:05:02.386Z,28.0
2022-08-09T10:10:03.296Z,28.1
2022-08-09T10:15:17.667Z,28.1
2022-08-09T10:20:02.638Z,27.7
2022-08-09T10:25:03.562Z,27.7
2022-08-09T10:30:43.957Z,27.2
2022-08-09T10:35:02.810Z,27.2
2022-08-09T10:40:01.831Z,27.7
2022-08-09T10:45:04.374Z,27.7
2022-08-09T10:50:15.109Z,26.5
2022-08-09T10:55:01.732Z,28.8
2022-08-09T11:00:03.036Z,28.8
2022-08-09T11:05:01.848Z,28.1
2022-08-09T11:10:02.426Z,28.1
2022-08-09T11:15:02.201Z,28.7
2022-08-09T11:20:12.026Z,28.7
2022-08-09T11:25:02.595Z,28.5
2022-08-09T11:30:05.681Z,28.5
2022-08-09T11:35:02.445Z,29.1
2022-08-09T11:40:02.854Z,29.1
2022-08-09T11:45:02.737Z,28.7
2022-08-09T11:50:53.222Z,28.7
2022-08-09T11:55:02.057Z,29.6
2022-08-09T12:00:02.012Z,29.6
2022-08-09T12:05:02.034Z,30.1
2022-08-09T12:10:02.354Z,30.1
2022-08-09T12:15:07.280Z,30.2
2022-08-09T12:20:02.504Z,30.2
2022-08-09T12:25:02.251Z,31.0
2022-08-09T12:30:36.760Z,31.0
2022-08-09T12:35:03.106Z,31.2
2022-08-09T12:40:02.694Z,31.1
2022-08-09T12:45:02.696Z,31.1
2022-08-09T12:50:01.908Z,29.0
2022-08-09T12:56:12.119Z,29.2
2022-08-09T13:00:05.106Z,31.2
2022-08-09T13:05:02.643Z,31.2
2022-08-09T13:10:02.756Z,29.2
2022-08-09T13:15:02.607Z,30.7
2022-08-09T13:20:07.754Z,30.7
2022-08-09T13:25:03.705Z,31.2
2022-08-09T13:30:51.290Z,31.2
2022-08-09T13:35:02.543Z,32.0
2022-08-09T13:41:45.686Z,32.0
2022-08-09T13:45:01.765Z,32.0
2022-08-09T13:50:02.258Z,32.0
2022-08-09T13:55:05.031Z,31.8
2022-08-09T14:00:02.068Z,31.8
2022-08-09T14:05:01.968Z,32.5
2022-08-09T14:10:01.938Z,30.5
2022-08-09T14:15:02.335Z,33.0
2022-08-09T14:20:02.923Z,33.0
2022-08-09T14:25:02.143Z,32.5
2022-08-09T14:30:18.645Z,32.5
2022-08-09T14:35:02.405Z,31.8
2022-08-09T14:40:02.648Z,32.0
2022-08-09T14:46:39.805Z,32.0
2022-08-09T14:50:02.659Z,33.0
2022-08-09T14:55:02.544Z,33.0
2022-08-09T15:00:02.576Z,33.5
2022-08-09T15:05:02.583Z,33.5
2022-08-09T15:10:10.785Z,32.4
2022-08-09T15:15:02.668Z,32.4
2022-08-09T15:20:03.510Z,33.2
2022-08-09T15:25:03.890Z,33.2
2022-08-09T15:30:57.215Z,32.7
2022-08-09T15:35:02.391Z,32.7
2022-08-09T15:40:01.880Z,31.8
2022-08-09T15:45:02.670Z,31.8
2022-08-09T15:50:04.925Z,31.6
2022-08-09T15:55:02.195Z,31.6
2022-08-09T16:00:01.991Z,32.0
2022-08-09T16:05:02.372Z,32.2
2022-08-09T16:10:05.085Z,32.2
2022-08-09T16:15:02.387Z,31.6
2022-08-09T16:20:04.659Z,31.6
2022-08-09T16:25:02.778Z,31.2
2022-08-09T16:30:02.713Z,31.1
2022-08-09T16:35:02.384Z,31.1
2022-08-09T16:40:04.610Z,30.7
2022-08-09T16:45:01.852Z,30.7
2022-08-09T16:50:32.498Z,30.5
2022-08-09T16:55:01.910Z,30.5
2022-08-09T17:00:02.777Z,30.6
2022-08-09T17:05:02.697Z,30.6
2022-08-09T17:10:02.710Z,30.6
2022-08-09T17:15:02.278Z,30.6
2022-08-09T17:20:28.260Z,30.2
2022-08-09T17:25:04.701Z,30.2
2022-08-09T17:30:04.790Z,29.7
2022-08-09T17:35:11.201Z,29.7
2022-08-09T17:40:02.608Z,28.7
2022-08-09T17:45:02.489Z,28.7
2022-08-09T17:50:14.136Z,29.2
2022-08-09T17:55:02.220Z,29.2
2022-08-09T18:00:05.706Z,29.5
2022-08-09T18:05:02.390Z,29.5
2022-08-09T18:10:05.492Z,29.1
2022-08-09T18:15:02.427Z,29.1
2022-08-09T18:20:59.790Z,28.3
2022-08-09T18:25:02.719Z,26.2
2022-08-09T18:30:42.689Z,26.1
2022-08-09T18:35:02.383Z,26.1
2022-08-09T18:40:02.300Z,25.1
2022-08-09T18:45:02.132Z,25.1
2022-08-09T18:50:02.887Z,24.6
2022-08-09T18:55:02.191Z,24.6
2022-08-09T19:00:04.320Z,24.2
2022-08-09T19:05:03.700Z,24.2
2022-08-09T19:10:14.815Z,23.7
2022-08-09T19:15:02.774Z,23.7
2022-08-09T19:20:02.356Z,23.2
2022-08-09T19:25:11.979Z,23.2
2022-08-09T19:30:25.205Z,22.7
2022-08-09T19:35:02.775Z,22.7
2022-08-09T19:40:04.862Z,22.6
2022-08-09T19:45:02.514Z,22.6
2022-08-09T19:50:06.598Z,22.3
2022-08-09T19:55:02.635Z,22.3
2022-08-09T20:00:06.696Z,22.1
2022-08-09T20:05:09.904Z,22.1
2022-08-09T20:10:17.048Z,21.7
2022-08-09T20:15:01.910Z,21.7
2022-08-09T20:20:02.320Z,21.6
2022-08-09T20:25:02.415Z,21.6
2022-08-09T20:30:02.763Z,21.3
2022-08-09T20:35:15.972Z,21.3
2022-08-09T20:40:17.266Z,21.2
2022-08-09T20:45:59.384Z,21.2
2022-08-09T20:50:08.535Z,20.7
2022-08-09T20:55:10.264Z,20.7
2022-08-09T21:00:22.136Z,20.6
2022-08-09T21:05:56.755Z,20.6
2022-08-09T21:10:08.292Z,20.3
2022-08-09T21:15:12.528Z,20.3
2022-08-09T21:20:22.756Z,20.2
2022-08-09T21:25:07.905Z,20.2
2022-08-09T21:30:08.109Z,20.1
2022-08-09T21:35:08.312Z,20.1
2022-08-09T21:40:08.275Z,20.0
2022-08-09T21:45:08.285Z,20.0
2022-08-09T21:50:07.995Z,19.7
2022-08-09T21:55:07.986Z,19.7
2022-08-09T22:00:08.947Z,19.5
2022-08-09T22:05:08.891Z,19.5
2022-08-09T22:10:08.014Z,19.3
2022-08-09T22:15:08.888Z,19.3
2022-08-09T22:20:08.274Z,19.2
2022-08-09T22:26:05.335Z,19.2
2022-08-09T22:30:11.450Z,19.1
2022-08-09T22:36:01.624Z,19.1
2022-08-09T22:40:08.183Z,18.8
2022-08-09T22:48:18.806Z,18.8
2022-08-09T22:50:07.853Z,18.8
2022-08-09T22:55:08.576Z,18.8
2022-08-09T23:00:58.534Z,18.7
2022-08-09T23:05:08.076Z,18.7
2022-08-09T23:10:08.649Z,18.2
2022-08-09T23:15:08.345Z,18.2
2022-08-09T23:20:08.413Z,18.2
2022-08-09T23:25:08.222Z,18.2
2022-08-09T23:30:07.897Z,18.1
2022-08-09T23:35:08.610Z,18.1
2022-08-09T23:40:08.306Z,17.7
2022-08-09T23:45:08.024Z,17.7
2022-08-09T23:50:07.678Z,17.7
2022-08-09T23:55:08.408Z,17.7
